sensor_id;sensor_type;location;lat;lon;timestamp;temperature;humidity
33741;DHT22;20065;48.380;10.892;2023-03-21T00:00:15;9.50;99.90
33741;DHT22;20065;48.380;10.892;2023-03-21T00:03:02;9.50;99.90
33741;DHT22;20065;48.380;10.892;2023-03-21T00:05:48;9.50;99.90
33741;DHT22;20065;48.380;10.892;2023-03-21T00:08:40;9.60;99.90
33741;DHT22;20065;48.380;10.892;2023-03-21T00:11:26;9.70;99.90
33741;DHT22;20065;48.380;10.892;2023-03-21T00:14:16;9.80;99.90
33741;DHT22;20065;48.380;10.892;2023-03-21T00:17:05;9.70;99.90
33741;DHT22;20065;48.380;10.892;2023-03-21T00:19:52;9.80;99.90
33741;DHT22;20065;48.380;10.892;2023-03-21T00:22:39;9.80;99.90
33741;DHT22;20065;48.380;10.892;2023-03-21T00:25:26;9.90;99.90
33741;DHT22;20065;48.380;10.892;2023-03-21T00:28:12;10.00;99.90
33741;DHT22;20065;48.380;10.892;2023-03-21T00:30:59;10.00;99.90
33741;DHT22;20065;48.380;10.892;2023-03-21T00:33:45;10.00;99.90
33741;DHT22;20065;48.380;10.892;2023-03-21T00:36:31;9.90;99.90
33741;DHT22;20065;48.380;10.892;2023-03-21T00:39:17;9.80;99.90
33741;DHT22;20065;48.380;10.892;2023-03-21T00:42:03;9.70;99.90
33741;DHT22;20065;48.380;10.892;2023-03-21T00:44:50;9.70;99.90
33741;DHT22;20065;48.380;10.892;2023-03-21T00:47:36;9.80;99.90
33741;DHT22;20065;48.380;10.892;2023-03-21T00:50:23;9.80;99.90
33741;DHT22;20065;48.380;10.892;2023-03-21T00:53:09;9.80;99.90
33741;DHT22;20065;48.380;10.892;2023-03-21T00:55:56;9.90;99.90
33741;DHT22;20065;48.380;10.892;2023-03-21T00:58:42;9.90;99.90
33741;DHT22;20065;48.380;10.892;2023-03-21T01:01:28;9.90;99.90
33741;DHT22;20065;48.380;10.892;2023-03-21T01:04:16;9.70;99.90
33741;DHT22;20065;48.380;10.892;2023-03-21T01:07:02;9.50;99.90
33741;DHT22;20065;48.380;10.892;2023-03-21T01:09:49;9.20;99.90
33741;DHT22;20065;48.380;10.892;2023-03-21T01:12:37;9.10;99.90
33741;DHT22;20065;48.380;10.892;2023-03-21T01:15:24;8.90;99.90
33741;DHT22;20065;48.380;10.892;2023-03-21T01:18:10;8.80;99.90
33741;DHT22;20065;48.380;10.892;2023-03-21T01:20:58;8.90;99.90
33741;DHT22;20065;48.380;10.892;2023-03-21T01:23:46;8.80;99.90
33741;DHT22;20065;48.380;10.892;2023-03-21T01:26:33;8.80;99.90
33741;DHT22;20065;48.380;10.892;2023-03-21T01:29:19;8.70;99.90
33741;DHT22;20065;48.380;10.892;2023-03-21T01:32:06;8.70;99.90
33741;DHT22;20065;48.380;10.892;2023-03-21T01:34:52;8.60;99.90
33741;DHT22;20065;48.380;10.892;2023-03-21T01:37:40;8.50;99.90
33741;DHT22;20065;48.380;10.892;2023-03-21T01:40:29;8.40;99.90
33741;DHT22;20065;48.380;10.892;2023-03-21T01:43:32;8.40;99.90
33741;DHT22;20065;48.380;10.892;2023-03-21T01:49:36;8.30;99.90
33741;DHT22;20065;48.380;10.892;2023-03-21T01:52:40;8.30;99.90
33741;DHT22;20065;48.380;10.892;2023-03-21T01:55:30;8.40;99.90
33741;DHT22;20065;48.380;10.892;2023-03-21T01:58:47;8.40;99.90
33741;DHT22;20065;48.380;10.892;2023-03-21T02:02:04;8.60;99.90
33741;DHT22;20065;48.380;10.892;2023-03-21T02:04:57;8.70;99.90
33741;DHT22;20065;48.380;10.892;2023-03-21T02:07:48;8.80;99.90
33741;DHT22;20065;48.380;10.892;2023-03-21T02:10:38;8.70;99.90
33741;DHT22;20065;48.380;10.892;2023-03-21T02:13:27;8.80;99.90
33741;DHT22;20065;48.380;10.892;2023-03-21T02:16:37;8.70;99.90
33741;DHT22;20065;48.380;10.892;2023-03-21T02:19:53;8.80;99.90
33741;DHT22;20065;48.380;10.892;2023-03-21T02:38:26;8.80;99.90
33741;DHT22;20065;48.380;10.892;2023-03-21T02:44:43;8.70;99.90
33741;DHT22;20065;48.380;10.892;2023-03-21T02:47:40;8.70;99.90
33741;DHT22;20065;48.380;10.892;2023-03-21T02:50:40;8.90;99.90
33741;DHT22;20065;48.380;10.892;2023-03-21T02:53:31;8.90;99.90
33741;DHT22;20065;48.380;10.892;2023-03-21T02:56:21;9.00;99.90
33741;DHT22;20065;48.380;10.892;2023-03-21T02:59:15;8.90;99.90
33741;DHT22;20065;48.380;10.892;2023-03-21T03:02:02;8.90;99.90
33741;DHT22;20065;48.380;10.892;2023-03-21T03:04:50;8.90;99.90
33741;DHT22;20065;48.380;10.892;2023-03-21T03:14:26;9.00;99.90
33741;DHT22;20065;48.380;10.892;2023-03-21T03:20:17;9.20;99.90
33741;DHT22;20065;48.380;10.892;2023-03-21T03:26:06;9.30;99.90
33741;DHT22;20065;48.380;10.892;2023-03-21T03:29:00;9.30;99.90
33741;DHT22;20065;48.380;10.892;2023-03-21T03:31:57;9.30;99.90
33741;DHT22;20065;48.380;10.892;2023-03-21T03:34:52;9.40;99.90
33741;DHT22;20065;48.380;10.892;2023-03-21T03:37:45;9.40;99.90
33741;DHT22;20065;48.380;10.892;2023-03-21T03:40:49;9.50;99.90
33741;DHT22;20065;48.380;10.892;2023-03-21T03:43:58;9.50;99.90
33741;DHT22;20065;48.380;10.892;2023-03-21T03:49:56;9.50;99.90
33741;DHT22;20065;48.380;10.892;2023-03-21T03:52:50;9.50;99.90
33741;DHT22;20065;48.380;10.892;2023-03-21T03:55:38;9.50;99.90
33741;DHT22;20065;48.380;10.892;2023-03-21T03:58:34;9.50;99.90
33741;DHT22;20065;48.380;10.892;2023-03-21T04:01:20;9.50;99.90
33741;DHT22;20065;48.380;10.892;2023-03-21T04:04:07;9.50;99.90
33741;DHT22;20065;48.380;10.892;2023-03-21T04:06:54;9.50;99.90
33741;DHT22;20065;48.380;10.892;2023-03-21T04:09:42;9.40;99.90
33741;DHT22;20065;48.380;10.892;2023-03-21T04:12:31;9.40;99.90
33741;DHT22;20065;48.380;10.892;2023-03-21T04:15:52;9.40;99.90
33741;DHT22;20065;48.380;10.892;2023-03-21T04:18:38;9.40;99.90
33741;DHT22;20065;48.380;10.892;2023-03-21T04:21:25;9.50;99.90
33741;DHT22;20065;48.380;10.892;2023-03-21T04:24:13;9.40;99.90
33741;DHT22;20065;48.380;10.892;2023-03-21T04:27:01;9.40;99.90
33741;DHT22;20065;48.380;10.892;2023-03-21T04:30:02;9.50;99.90
33741;DHT22;20065;48.380;10.892;2023-03-21T04:32:59;9.50;99.90
33741;DHT22;20065;48.380;10.892;2023-03-21T04:35:48;9.60;99.90
33741;DHT22;20065;48.380;10.892;2023-03-21T04:38:35;9.60;99.90
33741;DHT22;20065;48.380;10.892;2023-03-21T04:41:22;9.60;99.90
33741;DHT22;20065;48.380;10.892;2023-03-21T04:44:10;9.40;99.90
33741;DHT22;20065;48.380;10.892;2023-03-21T04:46:57;9.40;99.90
33741;DHT22;20065;48.380;10.892;2023-03-21T04:49:44;9.40;99.90
33741;DHT22;20065;48.380;10.892;2023-03-21T04:52:30;9.40;99.90
33741;DHT22;20065;48.380;10.892;2023-03-21T04:55:17;9.40;99.90
33741;DHT22;20065;48.380;10.892;2023-03-21T04:58:06;9.20;99.90
33741;DHT22;20065;48.380;10.892;2023-03-21T05:00:52;9.30;99.90
33741;DHT22;20065;48.380;10.892;2023-03-21T05:03:39;9.30;99.90
33741;DHT22;20065;48.380;10.892;2023-03-21T05:06:26;9.40;99.90
33741;DHT22;20065;48.380;10.892;2023-03-21T05:09:13;9.40;99.90
33741;DHT22;20065;48.380;10.892;2023-03-21T05:11:59;9.40;99.90
33741;DHT22;20065;48.380;10.892;2023-03-21T05:14:48;9.40;99.90
33741;DHT22;20065;48.380;10.892;2023-03-21T05:17:34;9.30;99.90
33741;DHT22;20065;48.380;10.892;2023-03-21T05:20:21;9.00;99.90
33741;DHT22;20065;48.380;10.892;2023-03-21T05:23:11;8.90;99.90
33741;DHT22;20065;48.380;10.892;2023-03-21T05:25:57;9.00;99.90
33741;DHT22;20065;48.380;10.892;2023-03-21T05:28:54;9.10;99.90
33741;DHT22;20065;48.380;10.892;2023-03-21T05:31:41;9.00;99.90
33741;DHT22;20065;48.380;10.892;2023-03-21T05:34:30;9.00;99.90
33741;DHT22;20065;48.380;10.892;2023-03-21T05:37:17;9.00;99.90
33741;DHT22;20065;48.380;10.892;2023-03-21T05:40:09;9.00;99.90
33741;DHT22;20065;48.380;10.892;2023-03-21T05:43:00;9.10;99.90
33741;DHT22;20065;48.380;10.892;2023-03-21T05:45:46;9.00;99.90
33741;DHT22;20065;48.380;10.892;2023-03-21T05:48:35;9.10;99.90
33741;DHT22;20065;48.380;10.892;2023-03-21T05:51:32;9.10;99.90
33741;DHT22;20065;48.380;10.892;2023-03-21T05:54:18;9.30;99.90
33741;DHT22;20065;48.380;10.892;2023-03-21T05:57:07;9.40;99.90
33741;DHT22;20065;48.380;10.892;2023-03-21T06:00:13;9.50;99.90
33741;DHT22;20065;48.380;10.892;2023-03-21T06:03:02;9.60;99.90
33741;DHT22;20065;48.380;10.892;2023-03-21T06:05:59;9.60;99.90
33741;DHT22;20065;48.380;10.892;2023-03-21T06:08:52;9.60;99.90
33741;DHT22;20065;48.380;10.892;2023-03-21T06:11:41;9.70;99.90
33741;DHT22;20065;48.380;10.892;2023-03-21T06:14:49;9.80;99.90
33741;DHT22;20065;48.380;10.892;2023-03-21T06:17:40;9.90;99.90
33741;DHT22;20065;48.380;10.892;2023-03-21T06:20:30;9.70;99.90
33741;DHT22;20065;48.380;10.892;2023-03-21T06:23:23;9.70;99.90
33741;DHT22;20065;48.380;10.892;2023-03-21T06:26:09;9.80;99.90
33741;DHT22;20065;48.380;10.892;2023-03-21T06:28:56;9.90;99.90
33741;DHT22;20065;48.380;10.892;2023-03-21T06:31:42;9.90;99.90
33741;DHT22;20065;48.380;10.892;2023-03-21T06:34:28;10.00;99.90
33741;DHT22;20065;48.380;10.892;2023-03-21T06:37:15;10.00;99.90
33741;DHT22;20065;48.380;10.892;2023-03-21T06:40:02;10.00;99.90
33741;DHT22;20065;48.380;10.892;2023-03-21T06:42:50;10.00;99.90
33741;DHT22;20065;48.380;10.892;2023-03-21T06:45:37;10.00;99.90
33741;DHT22;20065;48.380;10.892;2023-03-21T06:48:23;10.00;99.90
33741;DHT22;20065;48.380;10.892;2023-03-21T06:51:12;10.00;99.90
33741;DHT22;20065;48.380;10.892;2023-03-21T06:54:01;10.10;99.90
33741;DHT22;20065;48.380;10.892;2023-03-21T06:56:58;10.10;99.90
33741;DHT22;20065;48.380;10.892;2023-03-21T06:59:50;10.20;99.90
33741;DHT22;20065;48.380;10.892;2023-03-21T07:02:42;10.20;99.90
33741;DHT22;20065;48.380;10.892;2023-03-21T07:05:35;10.30;99.90
33741;DHT22;20065;48.380;10.892;2023-03-21T07:08:21;10.50;99.90
33741;DHT22;20065;48.380;10.892;2023-03-21T07:11:08;10.50;99.90
33741;DHT22;20065;48.380;10.892;2023-03-21T07:13:54;10.60;99.90
33741;DHT22;20065;48.380;10.892;2023-03-21T07:16:42;10.70;99.90
33741;DHT22;20065;48.380;10.892;2023-03-21T07:19:28;10.80;99.90
33741;DHT22;20065;48.380;10.892;2023-03-21T07:22:14;10.10;99.90
33741;DHT22;20065;48.380;10.892;2023-03-21T07:25:01;10.90;99.90
33741;DHT22;20065;48.380;10.892;2023-03-21T07:27:48;11.00;99.90
33741;DHT22;20065;48.380;10.892;2023-03-21T07:30:34;10.90;99.90
33741;DHT22;20065;48.380;10.892;2023-03-21T07:33:23;10.80;99.90
33741;DHT22;20065;48.380;10.892;2023-03-21T07:36:12;10.80;99.90
33741;DHT22;20065;48.380;10.892;2023-03-21T07:39:00;10.70;99.90
33741;DHT22;20065;48.380;10.892;2023-03-21T07:41:46;10.70;99.90
33741;DHT22;20065;48.380;10.892;2023-03-21T07:44:43;10.80;99.90
33741;DHT22;20065;48.380;10.892;2023-03-21T07:47:30;11.00;99.90
33741;DHT22;20065;48.380;10.892;2023-03-21T07:50:18;11.20;99.90
33741;DHT22;20065;48.380;10.892;2023-03-21T07:53:04;11.40;99.90
33741;DHT22;20065;48.380;10.892;2023-03-21T07:55:52;11.60;99.90
33741;DHT22;20065;48.380;10.892;2023-03-21T07:58:40;11.70;99.90
33741;DHT22;20065;48.380;10.892;2023-03-21T08:01:26;11.70;99.90
33741;DHT22;20065;48.380;10.892;2023-03-21T08:04:13;11.60;99.90
33741;DHT22;20065;48.380;10.892;2023-03-21T08:06:59;11.50;99.90
33741;DHT22;20065;48.380;10.892;2023-03-21T08:09:45;11.70;99.90
33741;DHT22;20065;48.380;10.892;2023-03-21T08:12:31;11.90;99.90
33741;DHT22;20065;48.380;10.892;2023-03-21T08:15:18;11.80;99.90
33741;DHT22;20065;48.380;10.892;2023-03-21T08:18:04;11.70;99.90
33741;DHT22;20065;48.380;10.892;2023-03-21T08:20:51;11.90;99.90
33741;DHT22;20065;48.380;10.892;2023-03-21T08:23:38;12.10;99.90
33741;DHT22;20065;48.380;10.892;2023-03-21T08:26:24;12.30;99.90
33741;DHT22;20065;48.380;10.892;2023-03-21T08:29:12;12.20;99.90
33741;DHT22;20065;48.380;10.892;2023-03-21T08:31:58;12.20;99.90
33741;DHT22;20065;48.380;10.892;2023-03-21T08:34:44;12.20;99.90
33741;DHT22;20065;48.380;10.892;2023-03-21T08:37:30;12.30;99.90
33741;DHT22;20065;48.380;10.892;2023-03-21T08:40:17;12.40;99.90
33741;DHT22;20065;48.380;10.892;2023-03-21T08:43:05;12.60;99.90
33741;DHT22;20065;48.380;10.892;2023-03-21T08:45:51;12.70;99.90
33741;DHT22;20065;48.380;10.892;2023-03-21T08:48:37;13.00;99.90
33741;DHT22;20065;48.380;10.892;2023-03-21T08:51:24;13.20;99.90
33741;DHT22;20065;48.380;10.892;2023-03-21T08:54:21;13.10;99.90
33741;DHT22;20065;48.380;10.892;2023-03-21T08:57:07;13.20;99.90
33741;DHT22;20065;48.380;10.892;2023-03-21T08:59:54;13.40;99.90
33741;DHT22;20065;48.380;10.892;2023-03-21T09:02:41;13.30;99.90
33741;DHT22;20065;48.380;10.892;2023-03-21T09:05:27;13.00;99.90
33741;DHT22;20065;48.380;10.892;2023-03-21T09:08:13;13.10;99.90
33741;DHT22;20065;48.380;10.892;2023-03-21T09:11:00;13.10;99.90
33741;DHT22;20065;48.380;10.892;2023-03-21T09:13:46;12.60;99.90
33741;DHT22;20065;48.380;10.892;2023-03-21T09:16:32;13.20;99.90
33741;DHT22;20065;48.380;10.892;2023-03-21T09:19:19;13.40;99.90
33741;DHT22;20065;48.380;10.892;2023-03-21T09:22:05;13.50;99.90
33741;DHT22;20065;48.380;10.892;2023-03-21T09:24:59;13.60;99.90
33741;DHT22;20065;48.380;10.892;2023-03-21T09:27:52;13.80;99.90
33741;DHT22;20065;48.380;10.892;2023-03-21T09:30:39;14.10;99.90
33741;DHT22;20065;48.380;10.892;2023-03-21T09:33:26;14.20;99.90
33741;DHT22;20065;48.380;10.892;2023-03-21T09:36:14;14.10;99.90
33741;DHT22;20065;48.380;10.892;2023-03-21T09:39:01;13.90;99.90
33741;DHT22;20065;48.380;10.892;2023-03-21T09:44:57;14.00;99.90
33741;DHT22;20065;48.380;10.892;2023-03-21T09:47:47;13.90;99.90
33741;DHT22;20065;48.380;10.892;2023-03-21T09:50:42;13.90;99.90
33741;DHT22;20065;48.380;10.892;2023-03-21T09:53:32;14.00;99.90
33741;DHT22;20065;48.380;10.892;2023-03-21T09:56:20;14.30;99.90
33741;DHT22;20065;48.380;10.892;2023-03-21T09:59:09;14.50;99.90
33741;DHT22;20065;48.380;10.892;2023-03-21T10:01:59;14.70;99.90
33741;DHT22;20065;48.380;10.892;2023-03-21T10:04:46;14.50;99.90
33741;DHT22;20065;48.380;10.892;2023-03-21T10:07:38;14.70;99.90
33741;DHT22;20065;48.380;10.892;2023-03-21T10:10:34;14.80;99.90
33741;DHT22;20065;48.380;10.892;2023-03-21T10:13:27;14.90;99.90
33741;DHT22;20065;48.380;10.892;2023-03-21T10:16:16;14.80;99.90
33741;DHT22;20065;48.380;10.892;2023-03-21T10:19:11;15.00;99.90
33741;DHT22;20065;48.380;10.892;2023-03-21T10:21:57;15.10;99.90
33741;DHT22;20065;48.380;10.892;2023-03-21T10:24:43;15.20;99.90
33741;DHT22;20065;48.380;10.892;2023-03-21T10:27:31;15.40;99.90
33741;DHT22;20065;48.380;10.892;2023-03-21T10:30:49;15.80;99.90
33741;DHT22;20065;48.380;10.892;2023-03-21T10:33:38;16.20;99.90
33741;DHT22;20065;48.380;10.892;2023-03-21T10:36:26;16.40;99.90
33741;DHT22;20065;48.380;10.892;2023-03-21T10:39:36;16.70;99.90
33741;DHT22;20065;48.380;10.892;2023-03-21T10:42:28;16.60;99.90
33741;DHT22;20065;48.380;10.892;2023-03-21T10:45:17;16.50;99.90
33741;DHT22;20065;48.380;10.892;2023-03-21T10:48:06;16.60;99.90
33741;DHT22;20065;48.380;10.892;2023-03-21T10:50:53;16.40;99.90
33741;DHT22;20065;48.380;10.892;2023-03-21T10:53:45;16.50;99.90
33741;DHT22;20065;48.380;10.892;2023-03-21T10:56:37;16.40;99.90
33741;DHT22;20065;48.380;10.892;2023-03-21T10:59:26;16.30;99.90
33741;DHT22;20065;48.380;10.892;2023-03-21T11:02:25;16.30;99.90
33741;DHT22;20065;48.380;10.892;2023-03-21T11:05:22;16.10;99.90
33741;DHT22;20065;48.380;10.892;2023-03-21T11:08:14;15.70;99.90
33741;DHT22;20065;48.380;10.892;2023-03-21T11:11:06;16.20;99.90
33741;DHT22;20065;48.380;10.892;2023-03-21T11:14:01;16.90;99.90
33741;DHT22;20065;48.380;10.892;2023-03-21T11:16:51;17.10;99.90
33741;DHT22;20065;48.380;10.892;2023-03-21T11:19:37;17.50;98.90
33741;DHT22;20065;48.380;10.892;2023-03-21T11:22:40;18.00;98.50
33741;DHT22;20065;48.380;10.892;2023-03-21T11:25:35;18.00;97.70
33741;DHT22;20065;48.380;10.892;2023-03-21T11:28:24;17.80;98.90
33741;DHT22;20065;48.380;10.892;2023-03-21T11:31:11;18.30;98.50
33741;DHT22;20065;48.380;10.892;2023-03-21T11:33:57;19.00;97.60
33741;DHT22;20065;48.380;10.892;2023-03-21T11:36:50;18.80;96.60
33741;DHT22;20065;48.380;10.892;2023-03-21T11:39:37;19.00;96.90
33741;DHT22;20065;48.380;10.892;2023-03-21T11:42:28;19.30;97.30
33741;DHT22;20065;48.380;10.892;2023-03-21T11:45:24;19.90;96.40
33741;DHT22;20065;48.380;10.892;2023-03-21T11:48:12;20.30;95.70
33741;DHT22;20065;48.380;10.892;2023-03-21T11:51:09;20.00;95.00
33741;DHT22;20065;48.380;10.892;2023-03-21T11:56:48;19.10;95.80
33741;DHT22;20065;48.380;10.892;2023-03-21T12:03:35;18.90;95.80
33741;DHT22;20065;48.380;10.892;2023-03-21T12:06:34;19.20;95.80
33741;DHT22;20065;48.380;10.892;2023-03-21T12:09:37;19.80;95.50
33741;DHT22;20065;48.380;10.892;2023-03-21T12:26:25;21.90;93.40
33741;DHT22;20065;48.380;10.892;2023-03-21T12:37:56;20.10;94.10
33741;DHT22;20065;48.380;10.892;2023-03-21T12:44:42;19.70;96.10
33741;DHT22;20065;48.380;10.892;2023-03-21T12:47:12;19.70;94.20
33741;DHT22;20065;48.380;10.892;2023-03-21T12:53:05;21.30;93.10
33741;DHT22;20065;48.380;10.892;2023-03-21T12:55:57;21.80;92.60
33741;DHT22;20065;48.380;10.892;2023-03-21T12:58:55;22.50;92.20
33741;DHT22;20065;48.380;10.892;2023-03-21T13:01:44;23.10;91.70
33741;DHT22;20065;48.380;10.892;2023-03-21T13:07:43;22.30;90.90
33741;DHT22;20065;48.380;10.892;2023-03-21T13:10:31;22.20;91.00
33741;DHT22;20065;48.380;10.892;2023-03-21T13:13:32;21.50;91.20
33741;DHT22;20065;48.380;10.892;2023-03-21T13:16:46;21.80;90.90
33741;DHT22;20065;48.380;10.892;2023-03-21T13:22:29;20.00;92.00
33741;DHT22;20065;48.380;10.892;2023-03-21T13:25:23;19.90;92.90
33741;DHT22;20065;48.380;10.892;2023-03-21T13:28:21;20.10;91.60
33741;DHT22;20065;48.380;10.892;2023-03-21T13:35:40;20.70;91.70
33741;DHT22;20065;48.380;10.892;2023-03-21T13:38:28;20.60;91.20
33741;DHT22;20065;48.380;10.892;2023-03-21T13:41:39;20.10;91.40
33741;DHT22;20065;48.380;10.892;2023-03-21T13:44:39;18.90;91.90
33741;DHT22;20065;48.380;10.892;2023-03-21T13:50:27;18.60;93.00
33741;DHT22;20065;48.380;10.892;2023-03-21T13:58:57;17.10;93.70
33741;DHT22;20065;48.380;10.892;2023-03-21T14:05:05;16.60;93.20
33741;DHT22;20065;48.380;10.892;2023-03-21T14:08:07;16.70;94.20
33741;DHT22;20065;48.380;10.892;2023-03-21T14:10:56;16.40;94.40
33741;DHT22;20065;48.380;10.892;2023-03-21T14:13:45;16.40;95.30
33741;DHT22;20065;48.380;10.892;2023-03-21T14:16:32;16.50;95.80
33741;DHT22;20065;48.380;10.892;2023-03-21T14:19:22;16.70;95.90
33741;DHT22;20065;48.380;10.892;2023-03-21T14:22:13;16.80;95.80
33741;DHT22;20065;48.380;10.892;2023-03-21T14:25:00;16.70;95.90
33741;DHT22;20065;48.380;10.892;2023-03-21T14:27:53;16.30;96.60
33741;DHT22;20065;48.380;10.892;2023-03-21T14:30:40;16.20;97.30
33741;DHT22;20065;48.380;10.892;2023-03-21T14:33:38;16.30;97.00
33741;DHT22;20065;48.380;10.892;2023-03-21T14:36:29;16.40;97.30
33741;DHT22;20065;48.380;10.892;2023-03-21T14:39:25;16.70;97.30
33741;DHT22;20065;48.380;10.892;2023-03-21T14:42:12;17.10;97.20
33741;DHT22;20065;48.380;10.892;2023-03-21T14:44:59;16.80;96.00
33741;DHT22;20065;48.380;10.892;2023-03-21T14:51:00;16.50;97.60
33741;DHT22;20065;48.380;10.892;2023-03-21T14:53:46;16.60;97.50
33741;DHT22;20065;48.380;10.892;2023-03-21T14:56:34;16.50;97.20
33741;DHT22;20065;48.380;10.892;2023-03-21T14:59:25;16.30;97.20
33741;DHT22;20065;48.380;10.892;2023-03-21T15:02:18;16.30;97.70
33741;DHT22;20065;48.380;10.892;2023-03-21T15:11:02;16.40;97.70
33741;DHT22;20065;48.380;10.892;2023-03-21T15:13:49;16.30;97.60
33741;DHT22;20065;48.380;10.892;2023-03-21T15:16:39;16.20;97.90
33741;DHT22;20065;48.380;10.892;2023-03-21T15:19:30;16.20;97.60
33741;DHT22;20065;48.380;10.892;2023-03-21T15:22:47;16.30;98.20
33741;DHT22;20065;48.380;10.892;2023-03-21T15:25:37;16.50;98.00
33741;DHT22;20065;48.380;10.892;2023-03-21T15:28:24;16.40;98.00
33741;DHT22;20065;48.380;10.892;2023-03-21T15:31:22;16.30;97.70
33741;DHT22;20065;48.380;10.892;2023-03-21T15:34:22;16.10;97.70
33741;DHT22;20065;48.380;10.892;2023-03-21T15:37:20;16.20;98.20
33741;DHT22;20065;48.380;10.892;2023-03-21T15:43:13;16.10;98.10
33741;DHT22;20065;48.380;10.892;2023-03-21T15:46:00;15.90;98.10
33741;DHT22;20065;48.380;10.892;2023-03-21T15:48:46;15.90;98.30
33741;DHT22;20065;48.380;10.892;2023-03-21T15:51:33;15.90;98.60
33741;DHT22;20065;48.380;10.892;2023-03-21T15:54:24;15.90;98.30
33741;DHT22;20065;48.380;10.892;2023-03-21T15:57:31;15.80;98.60
33741;DHT22;20065;48.380;10.892;2023-03-21T16:00:39;15.80;98.60
33741;DHT22;20065;48.380;10.892;2023-03-21T16:03:37;15.90;98.90
33741;DHT22;20065;48.380;10.892;2023-03-21T16:06:30;16.10;98.90
33741;DHT22;20065;48.380;10.892;2023-03-21T16:09:18;16.00;98.50
33741;DHT22;20065;48.380;10.892;2023-03-21T16:12:12;15.90;99.00
33741;DHT22;20065;48.380;10.892;2023-03-21T16:15:02;15.70;99.20
33741;DHT22;20065;48.380;10.892;2023-03-21T16:17:55;15.50;99.20
33741;DHT22;20065;48.380;10.892;2023-03-21T16:20:44;15.40;99.20
33741;DHT22;20065;48.380;10.892;2023-03-21T16:23:30;15.10;99.40
33741;DHT22;20065;48.380;10.892;2023-03-21T16:26:23;15.10;99.80
33741;DHT22;20065;48.380;10.892;2023-03-21T16:29:13;15.20;99.70
33741;DHT22;20065;48.380;10.892;2023-03-21T16:31:59;15.10;99.80
33741;DHT22;20065;48.380;10.892;2023-03-21T16:34:51;15.10;99.90
33741;DHT22;20065;48.380;10.892;2023-03-21T16:37:38;14.90;99.90
33741;DHT22;20065;48.380;10.892;2023-03-21T16:40:31;15.00;99.90
33741;DHT22;20065;48.380;10.892;2023-03-21T16:43:18;15.30;99.90
33741;DHT22;20065;48.380;10.892;2023-03-21T16:46:04;15.40;99.90
33741;DHT22;20065;48.380;10.892;2023-03-21T16:48:53;15.50;99.90
33741;DHT22;20065;48.380;10.892;2023-03-21T16:51:39;15.60;99.90
33741;DHT22;20065;48.380;10.892;2023-03-21T16:54:25;15.60;99.90
33741;DHT22;20065;48.380;10.892;2023-03-21T16:57:25;15.60;99.90
33741;DHT22;20065;48.380;10.892;2023-03-21T17:00:17;15.70;99.80
33741;DHT22;20065;48.380;10.892;2023-03-21T17:03:15;15.60;99.60
33741;DHT22;20065;48.380;10.892;2023-03-21T17:06:04;15.60;99.90
33741;DHT22;20065;48.380;10.892;2023-03-21T17:08:51;15.60;99.90
33741;DHT22;20065;48.380;10.892;2023-03-21T17:11:38;15.50;99.90
33741;DHT22;20065;48.380;10.892;2023-03-21T17:14:26;15.40;99.90
33741;DHT22;20065;48.380;10.892;2023-03-21T17:17:16;15.10;99.90
33741;DHT22;20065;48.380;10.892;2023-03-21T17:20:35;15.00;99.90
33741;DHT22;20065;48.380;10.892;2023-03-21T17:23:30;14.90;99.90
33741;DHT22;20065;48.380;10.892;2023-03-21T17:26:24;15.00;99.90
33741;DHT22;20065;48.380;10.892;2023-03-21T17:29:13;15.00;99.90
33741;DHT22;20065;48.380;10.892;2023-03-21T17:31:59;15.10;99.90
33741;DHT22;20065;48.380;10.892;2023-03-21T17:34:45;15.10;99.90
33741;DHT22;20065;48.380;10.892;2023-03-21T17:37:33;15.00;99.90
33741;DHT22;20065;48.380;10.892;2023-03-21T17:40:22;14.70;99.90
33741;DHT22;20065;48.380;10.892;2023-03-21T17:43:18;14.40;99.90
33741;DHT22;20065;48.380;10.892;2023-03-21T17:46:09;14.20;99.90
33741;DHT22;20065;48.380;10.892;2023-03-21T17:48:56;14.20;99.90
33741;DHT22;20065;48.380;10.892;2023-03-21T17:51:42;14.20;99.90
33741;DHT22;20065;48.380;10.892;2023-03-21T17:54:31;14.40;99.90
33741;DHT22;20065;48.380;10.892;2023-03-21T17:57:17;14.60;99.90
33741;DHT22;20065;48.380;10.892;2023-03-21T18:00:05;14.70;99.90
33741;DHT22;20065;48.380;10.892;2023-03-21T18:02:58;14.70;99.90
33741;DHT22;20065;48.380;10.892;2023-03-21T18:05:44;14.70;99.90
33741;DHT22;20065;48.380;10.892;2023-03-21T18:08:30;14.60;99.90
33741;DHT22;20065;48.380;10.892;2023-03-21T18:11:18;14.50;99.90
33741;DHT22;20065;48.380;10.892;2023-03-21T18:14:04;14.60;99.90
33741;DHT22;20065;48.380;10.892;2023-03-21T18:16:53;14.50;99.90
33741;DHT22;20065;48.380;10.892;2023-03-21T18:19:42;14.40;99.90
33741;DHT22;20065;48.380;10.892;2023-03-21T18:22:30;14.40;99.90
33741;DHT22;20065;48.380;10.892;2023-03-21T18:25:16;14.30;99.90
33741;DHT22;20065;48.380;10.892;2023-03-21T18:28:03;14.20;99.90
33741;DHT22;20065;48.380;10.892;2023-03-21T18:30:50;14.10;99.90
33741;DHT22;20065;48.380;10.892;2023-03-21T18:33:37;14.10;99.90
33741;DHT22;20065;48.380;10.892;2023-03-21T18:36:25;14.10;99.90
33741;DHT22;20065;48.380;10.892;2023-03-21T18:39:11;14.10;99.90
33741;DHT22;20065;48.380;10.892;2023-03-21T18:41:58;14.00;99.90
33741;DHT22;20065;48.380;10.892;2023-03-21T18:44:46;14.10;99.90
33741;DHT22;20065;48.380;10.892;2023-03-21T18:47:32;14.10;99.90
33741;DHT22;20065;48.380;10.892;2023-03-21T18:50:19;14.10;99.90
33741;DHT22;20065;48.380;10.892;2023-03-21T18:53:05;14.10;99.90
33741;DHT22;20065;48.380;10.892;2023-03-21T18:55:51;14.10;99.90
33741;DHT22;20065;48.380;10.892;2023-03-21T18:58:38;14.10;99.90
33741;DHT22;20065;48.380;10.892;2023-03-21T19:01:24;14.10;99.90
33741;DHT22;20065;48.380;10.892;2023-03-21T19:04:10;14.00;99.90
33741;DHT22;20065;48.380;10.892;2023-03-21T19:06:56;14.00;99.90
33741;DHT22;20065;48.380;10.892;2023-03-21T19:09:43;13.90;99.90
33741;DHT22;20065;48.380;10.892;2023-03-21T19:12:30;13.90;99.90
33741;DHT22;20065;48.380;10.892;2023-03-21T19:15:17;13.80;99.90
33741;DHT22;20065;48.380;10.892;2023-03-21T19:18:06;13.80;99.90
33741;DHT22;20065;48.380;10.892;2023-03-21T19:20:52;13.70;99.90
33741;DHT22;20065;48.380;10.892;2023-03-21T19:23:39;13.60;99.90
33741;DHT22;20065;48.380;10.892;2023-03-21T19:26:26;13.60;99.90
33741;DHT22;20065;48.380;10.892;2023-03-21T19:29:13;13.50;99.90
33741;DHT22;20065;48.380;10.892;2023-03-21T19:31:59;13.40;99.90
33741;DHT22;20065;48.380;10.892;2023-03-21T19:34:45;13.40;99.90